Wilson Algeciras — 9HA2471 — position and weather

sailwx.info

Track history (hours):
 
Tides and Currents Weather Stations Pressure Air Temp Water Temp Dewpoint Dewpoint Depression Visibility Wind Speed Wind Dir Waves Ship Positions

Wilson Algeciras

Last reported at 2017-Apr-28 16:31 UTC. Time now 2017-Apr-28 20:11 UTC.
Position N 47°05' W 004°56'.

Length 88 m; draft 4.4 m.

Type: Ship. MMSI: 248689000.

Date/timePositionNaut miles runAvg speedWind from/ knotsBaromVisibWave heightAir tempDewpointWater temp
2017-Apr-28 16:31N 47°05' W 004°56'010.8
2017-Apr-28 16:30N 47°05' W 004°56'53 9.6
2017-Apr-28 10:58N 47°54' W 005°27'1111.1
2017-Apr-28 09:58N 48°04' W 005°34'1111.4
2017-Apr-28 08:58N 48°14' W 005°41'129 8.3
2017-Apr-27 17:20N 49°48' W 003°26'3 8.2
2017-Apr-27 17:00N 49°50' W 003°22'8 9.0
2017-Apr-27 16:10N 49°54' W 003°12'2 9.9
2017-Apr-27 16:00N 49°55' W 003°10'510.6
2017-Apr-27 15:29N 49°57' W 003°03'106 9.4
2017-Apr-27 04:13N 50°28' W 000°24'211.6
2017-Apr-27 04:00N 50°28' W 000°20'611.7
2017-Apr-27 03:30N 50°30' W 000°11'611.7
2017-Apr-27 03:00N 50°31' W 000°02'611.5
2017-Apr-27 02:30N 50°33' E 000°06'1411.2
2017-Apr-27 01:15N 50°37' E 000°28'210.5
2017-Apr-27 01:00N 50°38' E 000°31'510.2
2017-Apr-27 00:30N 50°41' E 000°38'5 9.7
2017-Apr-27 00:00N 50°43' E 000°44'5 9.3
2017-Apr-26 23:30N 50°46' E 000°51'5 9.1
2017-Apr-26 22:59N 50°49' E 000°57'9 9.0
2017-Apr-26 22:00N 50°54' E 001°08'5 9.5
2017-Apr-26 21:30N 50°57' E 001°14'510.8
2017-Apr-26 21:00N 51°01' E 001°20'612.7
2017-Apr-26 20:30N 51°05' E 001°28'713.9
2017-Apr-26 20:00N 51°09' E 001°36'713.3
2017-Apr-26 19:31N 51°14' E 001°44'612.9
2017-Apr-26 19:01N 51°19' E 001°48'612.1
2017-Apr-26 18:30N 51°25' E 001°52'611.1
2017-Apr-26 18:00N 51°30' E 001°56'510.4
2017-Apr-26 17:30N 51°35' E 001°59'5 9.7
2017-Apr-26 17:00N 51°39' E 002°03'4 8.9
2017-Apr-26 16:30N 51°43' E 002°05'  
2017-Apr-23 17:56N 62°01' E 004°26'4 9.2
2017-Apr-23 17:30N 62°04' E 004°31'5 9.1
2017-Apr-23 17:00N 62°08' E 004°35'5 9.1
2017-Apr-23 16:30N 62°12' E 004°40'4 9.0
2017-Apr-23 16:00N 62°16' E 004°45'4 7.6
2017-Apr-23 15:30N 62°19' E 004°49'2 4.8
2017-Apr-23 15:00N 62°22' E 004°52'7 6.8
2017-Apr-23 14:00N 62°28' E 004°58'4 8.5
2017-Apr-23 13:30N 62°31' E 005°03'4 8.5
2017-Apr-23 13:00N 62°35' E 005°08'279 7.9
2017-Apr-22 01:43N 66°15' E 011°45'1 6.7
2017-Apr-22 01:30N 66°15' E 011°48'4 7.1
2017-Apr-22 01:00N 66°16' E 011°57'4 7.0
2017-Apr-22 00:30N 66°17' E 012°06'4 7.7
2017-Apr-22 00:00N 66°17' E 012°15'4 8.1
2017-Apr-21 23:30N 66°15' E 012°24'5 9.2
2017-Apr-21 23:00N 66°15' E 012°36'4 8.0
2017-Apr-21 22:30N 66°11' E 012°39'4 8.0
2017-Apr-21 22:00N 66°07' E 012°40'4 8.2
2017-Apr-21 21:30N 66°03' E 012°39'3 6.0
2017-Apr-21 21:00N 66°03' E 012°46'4 8.3
2017-Apr-21 20:30N 66°02' E 012°56'4 8.0
2017-Apr-21 20:00N 65°58' E 012°55'5 9.7
2017-Apr-21 19:30N 65°55' E 013°04'5 9.4
2017-Apr-21 19:00N 65°51' E 013°11'0 0.5
2017-Apr-21 18:26N 65°51' E 013°11'0 0.0
2017-Apr-21 17:53N 65°51' E 013°11'0 0.0
2017-Apr-21 17:29N 65°51' E 013°11'0 0.0
2017-Apr-21 16:56N 65°51' E 013°11'0 0.0
2017-Apr-21 16:26N 65°51' E 013°11'0 0.0
2017-Apr-21 15:56N 65°51' E 013°11'0 0.0
2017-Apr-21 15:20N 65°51' E 013°11'0 0.0
2017-Apr-21 14:56N 65°51' E 013°11'0 0.0
2017-Apr-21 14:20N 65°51' E 013°11'0 0.0
2017-Apr-21 13:26N 65°51' E 013°11'0 0.0
2017-Apr-21 12:50N 65°51' E 013°11'0 0.0
2017-Apr-21 12:26N 65°51' E 013°11'0 0.0
2017-Apr-21 11:14N 65°51' E 013°11'0 0.0
2017-Apr-21 10:56N 65°51' E 013°11'0 0.0
2017-Apr-21 09:56N 65°51' E 013°11'0 0.0
2017-Apr-21 09:26N 65°51' E 013°11'0 0.0
2017-Apr-21 08:59N 65°51' E 013°11'0 0.0
2017-Apr-21 08:29N 65°51' E 013°11'0 0.0
2017-Apr-21 07:44N 65°51' E 013°11'0 0.0
2017-Apr-21 07:19N 65°51' E 013°11'0 0.0
2017-Apr-21 06:55N 65°51' E 013°11'0 0.0
2017-Apr-21 06:25N 65°51' E 013°11'0 0.0
2017-Apr-21 05:55N 65°51' E 013°11'0 0.0
2017-Apr-21 05:27N 65°51' E 013°11'0 0.0
2017-Apr-21 04:57N 65°51' E 013°11'0 0.0
2017-Apr-21 04:30N 65°51' E 013°11'0 0.0
2017-Apr-21 04:00N 65°51' E 013°11'0 0.0
2017-Apr-21 03:30N 65°51' E 013°11'0 0.0
2017-Apr-21 03:00N 65°51' E 013°11'0 0.0
2017-Apr-21 02:30N 65°51' E 013°11'0 0.0
2017-Apr-21 01:57N 65°51' E 013°11'0 0.0
2017-Apr-21 01:27N 65°51' E 013°11'0 0.0
2017-Apr-21 00:57N 65°51' E 013°11'0 0.0
2017-Apr-21 00:27N 65°51' E 013°11'0 0.0
2017-Apr-20 23:57N 65°51' E 013°11'0 0.0
2017-Apr-20 23:27N 65°51' E 013°11'0 0.0
2017-Apr-20 22:57N 65°51' E 013°11'0 0.0
2017-Apr-20 22:30N 65°51' E 013°11'0 0.0
2017-Apr-20 21:54N 65°51' E 013°11'0 0.0
2017-Apr-20 21:27N 65°51' E 013°11'0 0.0
2017-Apr-20 20:57N 65°51' E 013°11'0 0.0
2017-Apr-20 20:30N 65°51' E 013°11'0 0.0
2017-Apr-20 20:00N 65°51' E 013°11'0 0.0
2017-Apr-20 19:06N 65°51' E 013°11'0 0.0
2017-Apr-20 18:57N 65°51' E 013°11'0 0.0
2017-Apr-20 17:42N 65°51' E 013°11'0 0.0
2017-Apr-20 16:51N 65°51' E 013°11'0 0.0
2017-Apr-20 16:21N 65°51' E 013°11'0 0.0
2017-Apr-20 16:00N 65°51' E 013°11'0 0.0
2017-Apr-20 15:30N 65°51' E 013°11'0 0.0
2017-Apr-20 14:57N 65°51' E 013°11'0 0.0
2017-Apr-20 14:00N 65°51' E 013°11'0 0.0
2017-Apr-20 13:30N 65°51' E 013°11'0 0.0
2017-Apr-20 13:00N 65°51' E 013°11'0 0.0
2017-Apr-20 12:30N 65°51' E 013°11'0 0.0
2017-Apr-20 12:00N 65°51' E 013°11'0 0.0
2017-Apr-20 11:30N 65°51' E 013°11'0 0.0
2017-Apr-20 10:51N 65°51' E 013°11'0 0.0
2017-Apr-20 10:21N 65°51' E 013°11'0 0.0
2017-Apr-20 09:48N 65°51' E 013°11'0 0.0
2017-Apr-20 09:30N 65°51' E 013°11'0 0.0
2017-Apr-20 08:48N 65°51' E 013°11'0 0.0
2017-Apr-20 08:30N 65°51' E 013°11'0 0.0
2017-Apr-20 07:59N 65°51' E 013°11'1 1.9
2017-Apr-20 07:30N 65°52' E 013°10'510.0
2017-Apr-20 06:59N 65°56' E 013°02'5 9.8
2017-Apr-20 06:30N 65°59' E 012°53'4 7.5
2017-Apr-20 06:00N 66°03' E 012°55'5 9.8
2017-Apr-20 05:30N 66°02' E 012°43'2 5.0
2017-Apr-20 05:00N 66°04' E 012°39'4 7.7
2017-Apr-20 04:29N 66°08' E 012°40'4 8.7
2017-Apr-20 04:00N 66°12' E 012°39'4 7.9
2017-Apr-20 03:31N 66°15' E 012°32'5 9.5
2017-Apr-20 03:01N 66°16' E 012°21'5 9.6
2017-Apr-20 02:30N 66°17' E 012°09'5 9.5
2017-Apr-20 02:01N 66°16' E 011°57'5 9.3
2017-Apr-20 01:30N 66°15' E 011°46'124 9.0
2017-Apr-19 11:40N 64°22' E 009°43'2 9.7
2017-Apr-19 11:30N 64°20' E 009°42'5 9.8
2017-Apr-19 11:00N 64°16' E 009°38'5 9.8
2017-Apr-19 10:30N 64°11' E 009°34'510.2
2017-Apr-19 10:00N 64°06' E 009°30'611.3
2017-Apr-19 09:30N 64°01' E 009°24'511.0
2017-Apr-19 09:00N 63°56' E 009°20'510.9
2017-Apr-19 08:30N 63°51' E 009°16'611.4
2017-Apr-19 08:00N 63°45' E 009°16'611.7
2017-Apr-19 07:30N 63°39' E 009°15'5 9.6
2017-Apr-19 07:00N 63°37' E 009°25'611.2
2017-Apr-19 06:30N 63°39' E 009°37'4 8.9
2017-Apr-19 06:00N 63°38' E 009°47'611.4
2017-Apr-19 05:30N 63°33' E 009°52'510.0
2017-Apr-19 05:00N 63°29' E 009°59'510.0
2017-Apr-19 04:30N 63°29' E 010°10'510.1
2017-Apr-19 04:00N 63°32' E 010°20'5 9.9
2017-Apr-19 03:31N 63°35' E 010°29'510.2
2017-Apr-19 03:00N 63°38' E 010°38'510.3
2017-Apr-19 02:30N 63°41' E 010°48'510.5
2017-Apr-19 02:01N 63°44' E 010°57'510.4
2017-Apr-19 01:30N 63°48' E 011°03'5 9.7
2017-Apr-19 01:00N 63°53' E 011°04'510.0
2017-Apr-19 00:30N 63°58' E 011°06'1 1.1
2017-Apr-18 23:59N 63°59' E 011°06'0 0.0
2017-Apr-18 23:29N 63°59' E 011°06'0 0.0
2017-Apr-18 22:59N 63°59' E 011°06'0 0.0
2017-Apr-18 22:29N 63°59' E 011°06'0 0.0
2017-Apr-18 21:59N 63°59' E 011°06'0 0.0
2017-Apr-18 21:29N 63°59' E 011°06'0 0.0
2017-Apr-18 20:59N 63°59' E 011°06'0 0.0
2017-Apr-18 20:29N 63°59' E 011°06'0 0.0
2017-Apr-18 19:59N 63°59' E 011°06'0 0.0
2017-Apr-18 19:29N 63°59' E 011°06'0 0.0
2017-Apr-18 18:59N 63°59' E 011°06'0 0.0
2017-Apr-18 18:29N 63°59' E 011°06'0 0.0
2017-Apr-18 17:59N 63°59' E 011°06'0 0.0
2017-Apr-18 17:29N 63°59' E 011°06'0 0.0
2017-Apr-18 16:59N 63°59' E 011°06'  
Track history (hours):
 
Tides and Currents Weather Stations Pressure Air Temp Water Temp Dewpoint Dewpoint Depression Visibility Wind Speed Wind Dir Waves Ship Positions

Wilson Algeciras

Last reported at 2017-Apr-28 16:31 UTC. Time now 2017-Apr-28 20:11 UTC.
Position N 47°05' W 004°56'.

Length 88 m; draft 4.4 m.

Type: Ship. MMSI: 248689000.

Date/timePositionNaut miles runAvg speedWind from/ knotsBaromVisibWave heightAir tempDewpointWater temp
2017-Apr-28 16:31N 47°05' W 004°56'010.8
2017-Apr-28 16:30N 47°05' W 004°56'53 9.6
2017-Apr-28 10:58N 47°54' W 005°27'1111.1
2017-Apr-28 09:58N 48°04' W 005°34'1111.4
2017-Apr-28 08:58N 48°14' W 005°41'129 8.3
2017-Apr-27 17:20N 49°48' W 003°26'3 8.2
2017-Apr-27 17:00N 49°50' W 003°22'8 9.0
2017-Apr-27 16:10N 49°54' W 003°12'2 9.9
2017-Apr-27 16:00N 49°55' W 003°10'510.6
2017-Apr-27 15:29N 49°57' W 003°03'106 9.4
2017-Apr-27 04:13N 50°28' W 000°24'211.6
2017-Apr-27 04:00N 50°28' W 000°20'611.7
2017-Apr-27 03:30N 50°30' W 000°11'611.7
2017-Apr-27 03:00N 50°31' W 000°02'611.5
2017-Apr-27 02:30N 50°33' E 000°06'1411.2
2017-Apr-27 01:15N 50°37' E 000°28'210.5
2017-Apr-27 01:00N 50°38' E 000°31'510.2
2017-Apr-27 00:30N 50°41' E 000°38'5 9.7
2017-Apr-27 00:00N 50°43' E 000°44'5 9.3
2017-Apr-26 23:30N 50°46' E 000°51'5 9.1
2017-Apr-26 22:59N 50°49' E 000°57'9 9.0
2017-Apr-26 22:00N 50°54' E 001°08'5 9.5
2017-Apr-26 21:30N 50°57' E 001°14'510.8
2017-Apr-26 21:00N 51°01' E 001°20'612.7
2017-Apr-26 20:30N 51°05' E 001°28'713.9
2017-Apr-26 20:00N 51°09' E 001°36'713.3
2017-Apr-26 19:31N 51°14' E 001°44'612.9
2017-Apr-26 19:01N 51°19' E 001°48'612.1
2017-Apr-26 18:30N 51°25' E 001°52'611.1
2017-Apr-26 18:00N 51°30' E 001°56'510.4
2017-Apr-26 17:30N 51°35' E 001°59'5 9.7
2017-Apr-26 17:00N 51°39' E 002°03'4 8.9
2017-Apr-26 16:30N 51°43' E 002°05'  
2017-Apr-23 17:56N 62°01' E 004°26'4 9.2
2017-Apr-23 17:30N 62°04' E 004°31'5 9.1
2017-Apr-23 17:00N 62°08' E 004°35'5 9.1
2017-Apr-23 16:30N 62°12' E 004°40'4 9.0
2017-Apr-23 16:00N 62°16' E 004°45'4 7.6
2017-Apr-23 15:30N 62°19' E 004°49'2 4.8
2017-Apr-23 15:00N 62°22' E 004°52'7 6.8
2017-Apr-23 14:00N 62°28' E 004°58'4 8.5
2017-Apr-23 13:30N 62°31' E 005°03'4 8.5
2017-Apr-23 13:00N 62°35' E 005°08'279 7.9
2017-Apr-22 01:43N 66°15' E 011°45'1 6.7
2017-Apr-22 01:30N 66°15' E 011°48'4 7.1
2017-Apr-22 01:00N 66°16' E 011°57'4 7.0
2017-Apr-22 00:30N 66°17' E 012°06'4 7.7
2017-Apr-22 00:00N 66°17' E 012°15'4 8.1
2017-Apr-21 23:30N 66°15' E 012°24'5 9.2
2017-Apr-21 23:00N 66°15' E 012°36'4 8.0
2017-Apr-21 22:30N 66°11' E 012°39'4 8.0
2017-Apr-21 22:00N 66°07' E 012°40'4 8.2
2017-Apr-21 21:30N 66°03' E 012°39'3 6.0
2017-Apr-21 21:00N 66°03' E 012°46'4 8.3
2017-Apr-21 20:30N 66°02' E 012°56'4 8.0
2017-Apr-21 20:00N 65°58' E 012°55'5 9.7
2017-Apr-21 19:30N 65°55' E 013°04'5 9.4
2017-Apr-21 19:00N 65°51' E 013°11'0 0.5
2017-Apr-21 18:26N 65°51' E 013°11'0 0.0
2017-Apr-21 17:53N 65°51' E 013°11'0 0.0
2017-Apr-21 17:29N 65°51' E 013°11'0 0.0
2017-Apr-21 16:56N 65°51' E 013°11'0 0.0
2017-Apr-21 16:26N 65°51' E 013°11'0 0.0
2017-Apr-21 15:56N 65°51' E 013°11'0 0.0
2017-Apr-21 15:20N 65°51' E 013°11'0 0.0
2017-Apr-21 14:56N 65°51' E 013°11'0 0.0
2017-Apr-21 14:20N 65°51' E 013°11'0 0.0
2017-Apr-21 13:26N 65°51' E 013°11'0 0.0
2017-Apr-21 12:50N 65°51' E 013°11'0 0.0
2017-Apr-21 12:26N 65°51' E 013°11'0 0.0
2017-Apr-21 11:14N 65°51' E 013°11'0 0.0
2017-Apr-21 10:56N 65°51' E 013°11'0 0.0
2017-Apr-21 09:56N 65°51' E 013°11'0 0.0
2017-Apr-21 09:26N 65°51' E 013°11'0 0.0
2017-Apr-21 08:59N 65°51' E 013°11'0 0.0
2017-Apr-21 08:29N 65°51' E 013°11'0 0.0
2017-Apr-21 07:44N 65°51' E 013°11'0 0.0
2017-Apr-21 07:19N 65°51' E 013°11'0 0.0
2017-Apr-21 06:55N 65°51' E 013°11'0 0.0
2017-Apr-21 06:25N 65°51' E 013°11'0 0.0
2017-Apr-21 05:55N 65°51' E 013°11'0 0.0
2017-Apr-21 05:27N 65°51' E 013°11'0 0.0
2017-Apr-21 04:57N 65°51' E 013°11'0 0.0
2017-Apr-21 04:30N 65°51' E 013°11'0 0.0
2017-Apr-21 04:00N 65°51' E 013°11'0 0.0
2017-Apr-21 03:30N 65°51' E 013°11'0 0.0
2017-Apr-21 03:00N 65°51' E 013°11'0 0.0
2017-Apr-21 02:30N 65°51' E 013°11'0 0.0
2017-Apr-21 01:57N 65°51' E 013°11'0 0.0
2017-Apr-21 01:27N 65°51' E 013°11'0 0.0
2017-Apr-21 00:57N 65°51' E 013°11'0 0.0
2017-Apr-21 00:27N 65°51' E 013°11'0 0.0
2017-Apr-20 23:57N 65°51' E 013°11'0 0.0
2017-Apr-20 23:27N 65°51' E 013°11'0 0.0
2017-Apr-20 22:57N 65°51' E 013°11'0 0.0
2017-Apr-20 22:30N 65°51' E 013°11'0 0.0
2017-Apr-20 21:54N 65°51' E 013°11'0 0.0
2017-Apr-20 21:27N 65°51' E 013°11'0 0.0
2017-Apr-20 20:57N 65°51' E 013°11'0 0.0
2017-Apr-20 20:30N 65°51' E 013°11'0 0.0
2017-Apr-20 20:00N 65°51' E 013°11'0 0.0
2017-Apr-20 19:06N 65°51' E 013°11'0 0.0
2017-Apr-20 18:57N 65°51' E 013°11'0 0.0
2017-Apr-20 17:42N 65°51' E 013°11'0 0.0
2017-Apr-20 16:51N 65°51' E 013°11'0 0.0
2017-Apr-20 16:21N 65°51' E 013°11'0 0.0
2017-Apr-20 16:00N 65°51' E 013°11'0 0.0
2017-Apr-20 15:30N 65°51' E 013°11'0 0.0
2017-Apr-20 14:57N 65°51' E 013°11'0 0.0
2017-Apr-20 14:00N 65°51' E 013°11'0 0.0
2017-Apr-20 13:30N 65°51' E 013°11'0 0.0
2017-Apr-20 13:00N 65°51' E 013°11'0 0.0
2017-Apr-20 12:30N 65°51' E 013°11'0 0.0
2017-Apr-20 12:00N 65°51' E 013°11'0 0.0
2017-Apr-20 11:30N 65°51' E 013°11'0 0.0
2017-Apr-20 10:51N 65°51' E 013°11'0 0.0
2017-Apr-20 10:21N 65°51' E 013°11'0 0.0
2017-Apr-20 09:48N 65°51' E 013°11'0 0.0
2017-Apr-20 09:30N 65°51' E 013°11'0 0.0
2017-Apr-20 08:48N 65°51' E 013°11'0 0.0
2017-Apr-20 08:30N 65°51' E 013°11'0 0.0
2017-Apr-20 07:59N 65°51' E 013°11'1 1.9
2017-Apr-20 07:30N 65°52' E 013°10'510.0
2017-Apr-20 06:59N 65°56' E 013°02'5 9.8
2017-Apr-20 06:30N 65°59' E 012°53'4 7.5
2017-Apr-20 06:00N 66°03' E 012°55'5 9.8
2017-Apr-20 05:30N 66°02' E 012°43'2 5.0
2017-Apr-20 05:00N 66°04' E 012°39'4 7.7
2017-Apr-20 04:29N 66°08' E 012°40'4 8.7
2017-Apr-20 04:00N 66°12' E 012°39'4 7.9
2017-Apr-20 03:31N 66°15' E 012°32'5 9.5
2017-Apr-20 03:01N 66°16' E 012°21'5 9.6
2017-Apr-20 02:30N 66°17' E 012°09'5 9.5
2017-Apr-20 02:01N 66°16' E 011°57'5 9.3
2017-Apr-20 01:30N 66°15' E 011°46'124 9.0
2017-Apr-19 11:40N 64°22' E 009°43'2 9.7
2017-Apr-19 11:30N 64°20' E 009°42'5 9.8
2017-Apr-19 11:00N 64°16' E 009°38'5 9.8
2017-Apr-19 10:30N 64°11' E 009°34'510.2
2017-Apr-19 10:00N 64°06' E 009°30'611.3
2017-Apr-19 09:30N 64°01' E 009°24'511.0
2017-Apr-19 09:00N 63°56' E 009°20'510.9
2017-Apr-19 08:30N 63°51' E 009°16'611.4
2017-Apr-19 08:00N 63°45' E 009°16'611.7
2017-Apr-19 07:30N 63°39' E 009°15'5 9.6
2017-Apr-19 07:00N 63°37' E 009°25'611.2
2017-Apr-19 06:30N 63°39' E 009°37'4 8.9
2017-Apr-19 06:00N 63°38' E 009°47'611.4
2017-Apr-19 05:30N 63°33' E 009°52'510.0
2017-Apr-19 05:00N 63°29' E 009°59'510.0
2017-Apr-19 04:30N 63°29' E 010°10'510.1
2017-Apr-19 04:00N 63°32' E 010°20'5 9.9
2017-Apr-19 03:31N 63°35' E 010°29'510.2
2017-Apr-19 03:00N 63°38' E 010°38'510.3
2017-Apr-19 02:30N 63°41' E 010°48'510.5
2017-Apr-19 02:01N 63°44' E 010°57'510.4
2017-Apr-19 01:30N 63°48' E 011°03'5 9.7
2017-Apr-19 01:00N 63°53' E 011°04'510.0
2017-Apr-19 00:30N 63°58' E 011°06'1 1.1
2017-Apr-18 23:59N 63°59' E 011°06'0 0.0
2017-Apr-18 23:29N 63°59' E 011°06'0 0.0
2017-Apr-18 22:59N 63°59' E 011°06'0 0.0
2017-Apr-18 22:29N 63°59' E 011°06'0 0.0
2017-Apr-18 21:59N 63°59' E 011°06'0 0.0
2017-Apr-18 21:29N 63°59' E 011°06'0 0.0
2017-Apr-18 20:59N 63°59' E 011°06'0 0.0
2017-Apr-18 20:29N 63°59' E 011°06'0 0.0
2017-Apr-18 19:59N 63°59' E 011°06'0 0.0
2017-Apr-18 19:29N 63°59' E 011°06'0 0.0
2017-Apr-18 18:59N 63°59' E 011°06'0 0.0
2017-Apr-18 18:29N 63°59' E 011°06'0 0.0
2017-Apr-18 17:59N 63°59' E 011°06'0 0.0
2017-Apr-18 17:29N 63°59' E 011°06'0 0.0
2017-Apr-18 16:59N 63°59' E 011°06'  

Dump ship's entire track history